Time;durP1;ratioP1;P1;durP2;ratioP2;P2;SDS_P1;SDS_P2;PMS_P1;PMS_P2;Temp;Humidity;BMP_temperature;BMP_pressure;BME280_temperature;BME280_humidity;BME280_pressure;Samples;Min_cycle;Max_cycle;Signal;HPM_P1;HPM_P2
2021/08/29 00:02:11;;;;;;;20.38;14.20;;;;;;;22.04;100.00;100471.66;4880952;29;20271;-65
2021/08/29 00:04:57;;;;;;;18.15;14.68;;;;;;;21.91;100.00;100458.28;4880925;29;20374;-65
2021/08/29 00:07:43;;;;;;;17.10;14.15;;;;;;;21.52;100.00;100452.97;4880786;29;20441;-65
2021/08/29 00:10:28;;;;;;;19.38;15.73;;;;;;;21.01;100.00;100443.03;4880866;29;20118;-65
2021/08/29 00:13:14;;;;;;;20.27;15.80;;;;;;;21.01;100.00;100439.53;4880863;29;20029;-65
2021/08/29 00:16:00;;;;;;;26.40;16.45;;;;;;;20.97;100.00;100435.34;4880377;29;20468;-65
2021/08/29 00:18:46;;;;;;;22.52;16.33;;;;;;;21.03;100.00;100432.28;4881336;29;20029;-65
2021/08/29 00:21:31;;;;;;;19.38;16.13;;;;;;;21.13;100.00;100434.25;4880320;29;20040;-64
2021/08/29 00:24:17;;;;;;;24.77;16.90;;;;;;;20.99;100.00;100431.63;4880642;29;20033;-65
2021/08/29 00:27:03;;;;;;;21.48;17.15;;;;;;;20.97;100.00;100438.03;4880246;29;20033;-64
2021/08/29 00:29:49;;;;;;;27.98;17.15;;;;;;;20.77;100.00;100431.25;4880570;29;20097;-64
2021/08/29 00:32:35;;;;;;;23.23;17.67;;;;;;;20.78;100.00;100438.28;4880195;29;20048;-65
2021/08/29 00:35:21;;;;;;;21.20;16.90;;;;;;;20.87;100.00;100415.53;4867320;29;20052;-65
2021/08/29 00:38:07;;;;;;;23.20;18.77;;;;;;;21.12;100.00;100413.03;4880339;29;20466;-66
2021/08/29 00:40:53;;;;;;;24.45;17.45;;;;;;;21.08;100.00;100403.53;4880533;29;20033;-65
2021/08/29 00:43:39;;;;;;;28.70;18.60;;;;;;;21.48;100.00;100405.25;4880483;29;20029;-66
2021/08/29 00:46:25;;;;;;;25.75;17.55;;;;;;;21.42;100.00;100387.88;4880286;29;20081;-66
2021/08/29 00:49:18;;;;;;;21.67;17.38;;;;;;;20.97;100.00;100398.06;4880381;29;20044;-66
2021/08/29 00:52:04;;;;;;;19.70;16.45;;;;;;;20.94;100.00;100407.09;4880407;29;20065;-65
2021/08/29 00:54:50;;;;;;;22.38;15.63;;;;;;;21.06;100.00;100400.97;4880080;29;20064;-65
2021/08/29 00:57:37;;;;;;;18.73;15.93;;;;;;;21.39;100.00;100400.56;4879883;29;20065;-65
2021/08/29 01:00:23;;;;;;;20.50;15.57;;;;;;;21.08;100.00;100396.41;4880576;29;20037;-65
2021/08/29 01:03:26;;;;;;;21.27;14.90;;;;;;;21.02;100.00;100399.44;4866944;29;20367;-66
2021/08/29 01:06:24;;;;;;;20.40;14.30;;;;;;;21.02;100.00;100390.63;4880464;29;20025;-65
2021/08/29 01:09:12;;;;;;;17.25;13.52;;;;;;;21.42;100.00;100387.03;4880014;29;20047;-64
2021/08/29 01:11:58;;;;;;;15.30;13.68;;;;;;;21.29;100.00;100383.44;4880047;29;20047;-65
2021/08/29 01:14:46;;;;;;;16.65;14.20;;;;;;;20.83;100.00;100385.59;4879823;29;20037;-65
2021/08/29 01:17:35;;;;;;;18.85;14.38;;;;;;;20.84;100.00;100384.63;4880217;29;20415;-65
2021/08/29 01:20:44;;;;;;;17.83;14.35;;;;;;;21.31;100.00;100385.09;4879885;29;20065;-65
2021/08/29 01:23:31;;;;;;;19.60;14.65;;;;;;;20.94;100.00;100383.09;4880124;29;20033;-64
2021/08/29 01:26:36;;;;;;;22.52;15.75;;;;;;;20.98;100.00;100384.63;4879900;29;20370;-65
2021/08/29 01:29:28;;;;;;;21.85;16.08;;;;;;;20.88;100.00;100379.97;4880523;29;20522;-65
2021/08/29 01:32:15;;;;;;;21.48;15.88;;;;;;;20.76;100.00;100378.09;4879764;29;20025;-65
2021/08/29 01:35:01;;;;;;;22.02;15.30;;;;;;;20.50;100.00;100370.94;4879744;29;20150;-65
2021/08/29 01:37:47;;;;;;;19.27;15.20;;;;;;;20.97;100.00;100374.94;4879860;29;20022;-66
2021/08/29 01:40:35;;;;;;;20.20;14.77;;;;;;;21.11;100.00;100371.38;4879761;29;20105;-65
2021/08/29 01:43:21;;;;;;;19.70;15.38;;;;;;;21.13;100.00;100353.47;4880169;29;20064;-65
2021/08/29 01:46:08;;;;;;;20.27;14.77;;;;;;;20.90;100.00;100352.28;4879246;29;20045;-65
2021/08/29 01:48:55;;;;;;;20.83;13.85;;;;;;;21.02;100.00;100350.66;4879541;29;20037;-65
2021/08/29 01:51:42;;;;;;;19.40;14.45;;;;;;;20.80;100.00;100361.81;4882144;29;20517;-65
2021/08/29 01:54:28;;;;;;;20.73;14.52;;;;;;;20.58;100.00;100358.81;4883528;29;20147;-65
2021/08/29 01:57:14;;;;;;;22.02;15.05;;;;;;;20.74;100.00;100362.22;4882656;29;20045;-65
2021/08/29 01:59:59;;;;;;;23.67;16.55;;;;;;;20.92;100.00;100360.19;4883137;29;20116;-65
2021/08/29 02:02:45;;;;;;;22.50;15.82;;;;;;;21.29;100.00;100356.81;4882694;29;20033;-65
2021/08/29 02:05:32;;;;;;;20.05;15.70;;;;;;;20.85;100.00;100359.72;4883062;29;20108;-66
2021/08/29 02:08:19;;;;;;;24.42;15.88;;;;;;;21.16;100.00;100359.44;4882903;29;20088;-65
2021/08/29 02:11:07;;;;;;;21.30;15.43;;;;;;;20.90;100.00;100375.41;4869580;29;20043;-66
2021/08/29 02:14:01;;;;;;;20.77;15.05;;;;;;;21.29;100.00;100370.13;4868188;29;20060;-66
2021/08/29 02:16:49;;;;;;;18.52;14.95;;;;;;;20.86;100.00;100368.56;4882971;29;20028;-66
2021/08/29 02:19:36;;;;;;;20.98;14.63;;;;;;;21.07;100.00;100362.72;4882465;29;20115;-66
2021/08/29 02:22:22;;;;;;;17.63;13.35;;;;;;;21.15;100.00;100360.41;4882819;29;20115;-65
2021/08/29 02:25:08;;;;;;;16.67;12.63;;;;;;;20.94;100.00;100352.97;4882865;29;20036;-66
2021/08/29 02:27:55;;;;;;;17.25;12.98;;;;;;;20.76;100.00;100355.00;4882267;29;20028;-65
2021/08/29 02:30:42;;;;;;;16.13;12.10;;;;;;;20.48;100.00;100368.38;4882799;29;20037;-65
2021/08/29 02:33:28;;;;;;;16.83;13.07;;;;;;;20.40;100.00;100367.13;4882224;29;20028;-66
2021/08/29 02:36:18;;;;;;;16.45;13.13;;;;;;;20.53;100.00;100365.41;4882268;29;20044;-66
2021/08/29 02:39:05;;;;;;;16.38;12.45;;;;;;;20.33;100.00;100371.97;4881987;29;20032;-66
2021/08/29 02:41:51;;;;;;;15.63;12.30;;;;;;;20.25;100.00;100379.59;4882305;29;20370;-66
2021/08/29 02:44:43;;;;;;;16.83;12.85;;;;;;;20.78;100.00;100387.69;4869063;29;20029;-66
2021/08/29 02:47:30;;;;;;;15.50;12.07;;;;;;;20.68;100.00;100372.41;4882008;29;20120;-66
2021/08/29 02:50:16;;;;;;;15.38;12.52;;;;;;;20.30;100.00;100381.97;4882026;29;20067;-65
2021/08/29 02:53:02;;;;;;;15.27;12.55;;;;;;;20.44;100.00;100379.28;4882357;29;20029;-65
2021/08/29 02:55:54;;;;;;;14.18;12.05;;;;;;;20.54;100.00;100373.28;4881651;29;20029;-65
2021/08/29 02:58:40;;;;;;;15.85;12.07;;;;;;;20.64;100.00;100365.56;4883460;29;20041;-65
2021/08/29 03:01:26;;;;;;;14.32;11.82;;;;;;;20.39;100.00;100371.63;4881102;29;20021;-65
2021/08/29 03:04:12;;;;;;;16.25;12.75;;;;;;;20.51;100.00;100367.31;4881652;29;20020;-66
2021/08/29 03:06:58;;;;;;;15.15;11.98;;;;;;;20.30;100.00;100366.88;4881559;29;20474;-65
2021/08/29 03:09:44;;;;;;;16.02;12.70;;;;;;;20.72;100.00;100366.78;4881442;29;20033;-65
2021/08/29 03:12:30;;;;;;;17.42;12.82;;;;;;;20.45;100.00;100376.53;4882156;29;20458;-65
2021/08/29 03:15:16;;;;;;;18.88;12.63;;;;;;;20.48;100.00;100378.13;4881983;29;20533;-65
2021/08/29 03:18:02;;;;;;;18.58;12.73;;;;;;;20.65;100.00;100383.28;4868458;29;20029;-65
2021/08/29 03:20:49;;;;;;;21.23;12.98;;;;;;;20.63;100.00;100380.69;4881418;29;20044;-65
2021/08/29 03:23:35;;;;;;;17.75;12.52;;;;;;;20.96;100.00;100386.53;4881929;29;20112;-65
2021/08/29 03:26:22;;;;;;;16.98;12.73;;;;;;;20.92;100.00;100382.38;4881190;29;20218;-66
2021/08/29 03:29:07;;;;;;;22.27;13.88;;;;;;;20.87;100.00;100383.59;4881772;29;20073;-66
2021/08/29 03:31:53;;;;;;;21.20;14.02;;;;;;;21.20;100.00;100386.72;4882065;29;20032;-66
2021/08/29 03:34:39;;;;;;;21.20;14.18;;;;;;;20.87;100.00;100384.44;4868347;29;20089;-66
2021/08/29 03:37:26;;;;;;;19.17;13.82;;;;;;;20.84;100.00;100386.44;4881851;29;20112;-65
2021/08/29 03:40:12;;;;;;;18.83;13.63;;;;;;;20.94;100.00;100380.44;4881035;29;20039;-65
2021/08/29 03:42:58;;;;;;;22.10;14.23;;;;;;;20.81;100.00;100382.16;4881299;29;20029;-65
2021/08/29 03:45:44;;;;;;;17.63;13.30;;;;;;;20.85;100.00;100381.03;4881156;29;20375;-66
2021/08/29 03:48:30;;;;;;;19.80;13.65;;;;;;;20.67;100.00;100392.00;4881163;29;20033;-66
2021/08/29 03:51:16;;;;;;;19.77;13.65;;;;;;;20.64;100.00;100382.41;4880799;29;20044;-65
2021/08/29 03:54:04;;;;;;;25.15;14.30;;;;;;;20.84;100.00;100387.31;4881271;29;20097;-65
2021/08/29 03:56:50;;;;;;;19.98;14.07;;;;;;;21.13;100.00;100396.13;4880693;29;20508;-65
2021/08/29 03:59:36;;;;;;;22.83;14.70;;;;;;;21.01;100.00;100388.91;4880922;29;20477;-65
2021/08/29 04:02:22;;;;;;;18.20;14.23;;;;;;;20.88;100.00;100395.94;4880655;29;20051;-65
2021/08/29 04:05:08;;;;;;;20.83;13.82;;;;;;;20.87;100.00;100399.56;4880759;29;20477;-65
2021/08/29 04:07:59;;;;;;;23.48;14.30;;;;;;;20.95;100.00;100398.16;4880613;29;20033;-65
2021/08/29 04:10:47;;;;;;;21.17;14.30;;;;;;;20.92;100.00;100403.69;4881063;29;20384;-66
2021/08/29 04:13:35;;;;;;;21.25;15.45;;;;;;;20.88;100.00;100403.94;4880459;29;20040;-65
2021/08/29 04:16:22;;;;;;;20.58;14.10;;;;;;;21.05;100.00;100403.75;4880382;29;20108;-65
2021/08/29 04:19:08;;;;;;;19.52;13.60;;;;;;;21.22;100.00;100401.66;4880579;29;20033;-65
2021/08/29 04:21:55;;;;;;;22.45;15.43;;;;;;;21.02;100.00;100402.09;4880331;29;20044;-65
2021/08/29 04:24:41;;;;;;;17.33;13.80;;;;;;;21.14;100.00;100400.47;4880709;29;20077;-66
2021/08/29 04:27:27;;;;;;;19.33;14.55;;;;;;;21.65;100.00;100389.84;4880277;29;20111;-66
2021/08/29 04:30:14;;;;;;;24.08;15.02;;;;;;;21.69;100.00;100394.00;4880935;29;20142;-66
2021/08/29 04:33:00;;;;;;;20.77;15.05;;;;;;;21.53;100.00;100393.34;4880305;29;20043;-65
2021/08/29 04:35:46;;;;;;;30.23;19.38;;;;;;;21.35;100.00;100389.25;4880250;29;20056;-65
2021/08/29 04:38:32;;;;;;;28.85;19.05;;;;;;;21.18;100.00;100394.81;4880303;29;20382;-66
2021/08/29 04:41:18;;;;;;;31.63;18.00;;;;;;;21.57;100.00;100396.63;4880807;29;20398;-65
2021/08/29 04:44:07;;;;;;;27.25;17.98;;;;;;;21.56;100.00;100379.81;4880251;29;20075;-65
2021/08/29 04:46:54;;;;;;;29.35;18.95;;;;;;;21.67;100.00;100393.28;4880175;29;20067;-65
2021/08/29 04:49:39;;;;;;;30.25;17.50;;;;;;;21.63;100.00;100390.91;4867171;29;20040;-66
2021/08/29 04:52:25;;;;;;;23.08;17.10;;;;;;;21.71;100.00;100389.47;4880310;29;20033;-65
2021/08/29 04:55:11;;;;;;;25.50;17.63;;;;;;;21.53;100.00;100396.00;4880395;29;20047;-65
2021/08/29 04:57:57;;;;;;;25.27;16.85;;;;;;;21.84;100.00;100374.34;4879932;29;20168;-66
2021/08/29 05:00:42;;;;;;;23.95;16.27;;;;;;;21.80;100.00;100378.16;4880550;29;20422;-66
2021/08/29 05:03:28;;;;;;;19.55;15.32;;;;;;;21.69;100.00;100377.16;4880563;29;20093;-65
2021/08/29 05:06:14;;;;;;;18.40;14.20;;;;;;;21.61;100.00;100372.34;4880134;29;20029;-67
2021/08/29 05:09:00;;;;;;;19.38;15.55;;;;;;;21.79;100.00;100368.44;4866842;29;20037;-66
2021/08/29 05:11:45;;;;;;;18.65;14.77;;;;;;;21.50;100.00;100372.22;4867030;29;20037;-66
2021/08/29 05:14:31;;;;;;;19.42;14.38;;;;;;;21.74;100.00;100370.56;4880154;29;20071;-66
2021/08/29 05:17:17;;;;;;;18.85;14.48;;;;;;;21.87;100.00;100379.44;4880293;29;20479;-66
2021/08/29 05:20:04;;;;;;;18.88;14.07;;;;;;;21.95;100.00;100368.25;4866694;29;20037;-66
2021/08/29 05:22:50;;;;;;;19.13;14.43;;;;;;;22.07;100.00;100362.06;4880435;29;20033;-65
2021/08/29 05:25:35;;;;;;;21.92;15.10;;;;;;;22.29;100.00;100356.91;4881580;29;20043;-66
2021/08/29 05:28:22;;;;;;;20.33;15.43;;;;;;;22.06;100.00;100347.03;4883859;29;20053;-66
2021/08/29 05:31:08;;;;;;;22.13;15.18;;;;;;;22.08;100.00;100347.75;4883920;29;20048;-66
2021/08/29 05:33:54;;;;;;;20.70;14.65;;;;;;;22.39;100.00;100348.13;4883381;29;20040;-65
2021/08/29 05:36:40;;;;;;;20.10;15.00;;;;;;;22.27;100.00;100338.31;4870203;29;20037;-66
2021/08/29 05:39:26;;;;;;;17.90;14.07;;;;;;;22.63;100.00;100343.72;4883158;29;20358;-66
2021/08/29 05:42:12;;;;;;;17.35;14.00;;;;;;;22.63;100.00;100342.88;4885311;29;20442;-66
2021/08/29 05:44:57;;;;;;;20.50;15.75;;;;;;;22.57;100.00;100341.50;4886352;29;20037;-67
2021/08/29 05:47:43;;;;;;;18.65;14.88;;;;;;;22.55;100.00;100348.75;4884736;29;20462;-66
2021/08/29 05:50:29;;;;;;;20.88;15.23;;;;;;;22.52;100.00;100349.00;4870112;29;20029;-66
2021/08/29 05:53:15;;;;;;;25.35;15.63;;;;;;;22.78;100.00;100347.94;4883136;29;20025;-66
2021/08/29 05:56:01;;;;;;;22.38;14.98;;;;;;;22.83;100.00;100350.28;4882773;29;20029;-66
2021/08/29 05:58:46;;;;;;;17.95;14.93;;;;;;;22.76;100.00;100347.22;4883048;29;20023;-66
2021/08/29 06:01:32;;;;;;;19.98;15.30;;;;;;;22.74;100.00;100350.94;4883224;29;20339;-68
2021/08/29 06:04:18;;;;;;;22.13;15.65;;;;;;;22.92;100.00;100345.13;4882930;29;20029;-66
2021/08/29 06:07:04;;;;;;;20.50;15.90;;;;;;;22.77;100.00;100348.91;4882730;29;20036;-66
2021/08/29 06:09:49;;;;;;;24.00;16.23;;;;;;;23.08;100.00;100344.84;4882513;29;20124;-67
2021/08/29 06:12:35;;;;;;;20.17;17.52;;;;;;;22.87;100.00;100346.44;4883091;29;20497;-66
2021/08/29 06:15:21;;;;;;;22.42;17.42;;;;;;;22.91;100.00;100340.72;4882619;29;20404;-66
2021/08/29 06:18:07;;;;;;;25.80;17.48;;;;;;;22.82;100.00;100336.06;4883196;29;20115;-67
2021/08/29 06:20:53;;;;;;;21.45;17.73;;;;;;;22.72;100.00;100335.06;4882436;29;20029;-66
2021/08/29 06:23:38;;;;;;;21.88;17.17;;;;;;;23.24;100.00;100330.22;4882758;29;20115;-66
2021/08/29 06:26:24;;;;;;;24.33;18.15;;;;;;;22.85;100.00;100330.50;4882528;29;20025;-66
2021/08/29 06:29:10;;;;;;;23.10;18.80;;;;;;;23.30;100.00;100327.09;4882739;29;20033;-66
2021/08/29 06:31:56;;;;;;;24.27;18.08;;;;;;;23.49;100.00;100321.19;4882231;29;20347;-67
2021/08/29 06:34:42;;;;;;;23.50;18.35;;;;;;;23.56;100.00;100332.25;4869335;29;20025;-66
2021/08/29 06:37:28;;;;;;;30.63;24.15;;;;;;;23.57;100.00;100336.63;4868011;29;20039;-66
2021/08/29 06:40:14;;;;;;;38.05;29.77;;;;;;;23.39;100.00;100328.22;4882275;29;20037;-67
2021/08/29 06:43:00;;;;;;;39.40;33.25;;;;;;;22.85;100.00;100338.53;4882397;29;20366;-67
2021/08/29 06:45:45;;;;;;;50.22;39.97;;;;;;;23.08;100.00;100344.84;4881677;29;20025;-67
2021/08/29 06:48:31;;;;;;;43.88;35.47;;;;;;;23.36;100.00;100348.00;4869127;29;20105;-65
2021/08/29 06:51:17;;;;;;;45.38;33.30;;;;;;;23.40;100.00;100344.13;4881989;29;20029;-66
2021/08/29 06:54:03;;;;;;;39.00;29.48;;;;;;;23.52;100.00;100345.88;4882053;29;20028;-65
2021/08/29 06:56:48;;;;;;;29.75;25.58;;;;;;;23.39;100.00;100360.31;4882108;29;20088;-65
2021/08/29 06:59:34;;;;;;;30.98;23.33;;;;;;;23.77;100.00;100373.41;4882428;29;20332;-65
2021/08/29 07:02:21;;;;;;;27.88;22.45;;;;;;;23.19;100.00;100380.47;4881778;29;20044;-65
2021/08/29 07:05:08;;;;;;;27.58;21.77;;;;;;;23.62;100.00;100378.13;4882050;29;20033;-65
2021/08/29 07:07:53;;;;;;;27.55;20.58;;;;;;;23.16;100.00;100385.22;4881779;29;20343;-65
2021/08/29 07:10:39;;;;;;;28.77;22.42;;;;;;;22.85;100.00;100393.75;4881849;29;20474;-66
2021/08/29 07:13:25;;;;;;;31.65;22.48;;;;;;;23.03;100.00;100401.28;4881848;29;20455;-65
2021/08/29 07:16:11;;;;;;;31.02;23.48;;;;;;;22.73;100.00;100406.19;4881881;29;20140;-65
2021/08/29 07:18:57;;;;;;;33.95;22.58;;;;;;;22.68;100.00;100399.47;4868260;29;20041;-66
2021/08/29 07:21:43;;;;;;;34.70;23.80;;;;;;;22.67;100.00;100406.63;4881322;29;20161;-65
2021/08/29 07:24:28;;;;;;;31.13;24.13;;;;;;;22.91;100.00;100399.50;4881601;29;20025;-65
2021/08/29 07:27:14;;;;;;;39.05;26.58;;;;;;;22.58;100.00;100396.59;4881312;29;20036;-66
2021/08/29 07:30:00;;;;;;;36.65;24.73;;;;;;;22.66;100.00;100402.25;4867669;29;20105;-66
2021/08/29 07:32:45;;;;;;;30.30;22.65;;;;;;;23.09;100.00;100403.50;4881297;29;20085;-66
2021/08/29 07:35:31;;;;;;;30.50;23.48;;;;;;;23.06;100.00;100397.53;4881125;29;20040;-65
2021/08/29 07:38:17;;;;;;;34.65;25.65;;;;;;;22.94;100.00;100391.28;4881456;29;20056;-66
2021/08/29 07:41:03;;;;;;;33.13;24.23;;;;;;;22.93;100.00;100394.91;4881241;29;20045;-66
2021/08/29 07:43:49;;;;;;;29.88;22.40;;;;;;;23.38;100.00;100401.38;4881943;29;20043;-66
2021/08/29 07:46:34;;;;;;;32.03;24.88;;;;;;;23.58;100.00;100390.03;4870638;29;20045;-66
2021/08/29 07:49:20;;;;;;;33.35;24.55;;;;;;;23.31;100.00;100390.28;4881363;29;20037;-66
2021/08/29 07:52:06;;;;;;;33.45;26.63;;;;;;;23.27;100.00;100386.13;4881425;29;20099;-66
2021/08/29 07:54:52;;;;;;;32.42;24.75;;;;;;;23.26;100.00;100391.59;4881640;29;20128;-66
2021/08/29 07:57:38;;;;;;;35.92;26.50;;;;;;;23.07;100.00;100375.19;4881237;29;20382;-66
2021/08/29 08:00:23;;;;;;;31.55;25.10;;;;;;;23.54;100.00;100369.00;4881836;29;20035;-66
2021/08/29 08:03:09;;;;;;;33.25;24.70;;;;;;;24.01;100.00;100379.56;4881145;29;20040;-66
2021/08/29 08:05:55;;;;;;;34.40;25.27;;;;;;;23.98;100.00;100385.19;4881337;29;20033;-66
2021/08/29 08:08:41;;;;;;;35.10;25.00;;;;;;;23.82;100.00;100385.47;4881034;29;20077;-66
2021/08/29 08:11:26;;;;;;;34.45;25.00;;;;;;;23.78;100.00;100399.22;4881233;29;20115;-66
2021/08/29 08:14:12;;;;;;;33.75;23.60;;;;;;;23.31;100.00;100397.47;4880962;29;20466;-66
2021/08/29 08:16:58;;;;;;;31.92;23.23;;;;;;;23.11;100.00;100396.22;4881180;29;20029;-66
2021/08/29 08:19:43;;;;;;;30.88;21.13;;;;;;;23.82;100.00;100390.00;4880815;29;20107;-66
2021/08/29 08:22:29;;;;;;;31.65;22.10;;;;;;;23.84;100.00;100369.28;4881202;29;20133;-66
2021/08/29 08:25:15;;;;;;;30.27;21.45;;;;;;;23.83;100.00;100381.81;4881249;29;20101;-66
2021/08/29 08:28:01;;;;;;;30.90;21.45;;;;;;;24.33;100.00;100380.56;4880794;29;20029;-66
2021/08/29 08:30:47;;;;;;;29.33;22.73;;;;;;;24.68;100.00;100371.47;4881323;29;20099;-66
2021/08/29 08:33:32;;;;;;;34.15;21.73;;;;;;;24.76;100.00;100352.94;4880806;29;20040;-66
2021/08/29 08:36:18;;;;;;;40.88;30.25;;;;;;;25.40;100.00;100329.72;4880732;29;20506;-66
2021/08/29 08:39:04;;;;;;;34.72;28.17;;;;;;;24.77;100.00;100322.47;4880666;29;20044;-66
2021/08/29 08:41:50;;;;;;;41.47;29.88;;;;;;;24.90;100.00;100344.63;4880805;29;20133;-66
2021/08/29 08:44:35;;;;;;;41.50;32.60;;;;;;;24.82;100.00;100364.97;4880577;29;20148;-66
2021/08/29 08:47:22;;;;;;;33.38;27.63;;;;;;;24.92;100.00;100373.97;4879863;29;20045;-66
2021/08/29 08:50:09;;;;;;;32.53;26.15;;;;;;;24.98;100.00;100365.41;4880237;29;20040;-66
2021/08/29 08:52:56;;;;;;;34.40;27.77;;;;;;;25.06;100.00;100362.94;4880185;29;20116;-66
2021/08/29 08:55:46;;;;;;;30.08;25.40;;;;;;;25.31;100.00;100358.16;4879896;29;20470;-66
2021/08/29 08:58:39;;;;;;;30.30;23.65;;;;;;;25.55;100.00;100356.06;4880137;29;20108;-66
2021/08/29 09:01:25;;;;;;;31.85;25.10;;;;;;;25.27;100.00;100351.28;4884324;29;20502;-66
2021/08/29 09:04:12;;;;;;;31.58;25.45;;;;;;;25.50;100.00;100354.75;4883709;29;20041;-67
2021/08/29 09:06:59;;;;;;;35.05;25.92;;;;;;;25.44;100.00;100356.13;4871057;29;20029;-66
2021/08/29 09:09:44;;;;;;;29.98;25.55;;;;;;;25.66;100.00;100363.22;4883791;29;20343;-65
2021/08/29 09:12:32;;;;;;;30.08;25.05;;;;;;;26.17;100.00;100356.94;4883673;29;20052;-65
2021/08/29 09:15:21;;;;;;;31.90;24.70;;;;;;;26.44;100.00;100345.59;4883548;29;20037;-65
2021/08/29 09:18:10;;;;;;;27.50;22.00;;;;;;;26.31;100.00;100348.50;4884094;29;20068;-65
2021/08/29 09:21:05;;;;;;;28.33;23.20;;;;;;;27.57;100.00;100346.78;4883548;29;20526;-65
2021/08/29 09:23:53;;;;;;;26.90;22.85;;;;;;;26.42;100.00;100348.41;4883539;29;20043;-66
2021/08/29 09:26:41;;;;;;;32.80;26.67;;;;;;;26.69;100.00;100348.66;4883488;29;20032;-66
2021/08/29 09:29:27;;;;;;;28.73;24.30;;;;;;;27.31;100.00;100343.81;4883521;29;20040;-67
2021/08/29 09:32:18;;;;;;;25.83;23.02;;;;;;;26.91;100.00;100348.44;4884162;29;20455;-67
2021/08/29 09:35:04;;;;;;;28.30;25.10;;;;;;;26.62;100.00;100349.34;4883553;29;20502;-66
2021/08/29 09:37:50;;;;;;;29.13;25.33;;;;;;;26.57;100.00;100349.72;4883323;29;20029;-65
2021/08/29 09:40:37;;;;;;;28.95;25.77;;;;;;;26.55;100.00;100345.47;4883511;29;20048;-66
2021/08/29 09:43:36;;;;;;;30.83;25.77;;;;;;;26.50;100.00;100340.53;4883720;29;20398;-66
2021/08/29 09:46:21;;;;;;;31.10;26.58;;;;;;;26.41;100.00;100330.56;4882897;29;20053;-66
2021/08/29 09:49:07;;;;;;;31.27;26.13;;;;;;;26.82;100.00;100346.59;4870185;29;20033;-66
2021/08/29 09:51:55;;;;;;;30.58;25.88;;;;;;;27.19;100.00;100338.69;4869736;29;20032;-65
2021/08/29 09:54:43;;;;;;;23.42;20.73;;;;;;;27.91;100.00;100339.94;4870191;29;20427;-66
2021/08/29 09:57:32;;;;;;;21.63;18.30;;;;;;;28.05;100.00;100338.63;4882689;29;20029;-66
2021/08/29 10:00:18;;;;;;;21.67;17.45;;;;;;;27.71;100.00;100332.00;4882981;29;20115;-67
2021/08/29 10:03:05;;;;;;;20.85;14.88;;;;;;;27.68;100.00;100338.53;4882744;29;20373;-66
2021/08/29 10:06:14;;;;;;;12.90;10.38;;;;;;;27.44;100.00;100330.94;4869846;29;20047;-66
2021/08/29 10:09:02;;;;;;;9.00;8.02;;;;;;;27.06;100.00;100332.75;4882547;29;20423;-66
2021/08/29 10:11:48;;;;;;;8.38;6.85;;;;;;;27.76;100.00;100330.59;4883760;29;20438;-66
2021/08/29 10:14:36;;;;;;;9.20;7.20;;;;;;;27.63;100.00;100331.88;4882525;29;20048;-66
2021/08/29 10:17:21;;;;;;;7.15;6.10;;;;;;;27.17;100.00;100338.81;4870395;29;20032;-65
2021/08/29 10:20:09;;;;;;;6.93;6.22;;;;;;;27.14;100.00;100338.25;4882528;29;20029;-65
2021/08/29 10:22:56;;;;;;;6.70;6.00;;;;;;;27.02;100.00;100331.31;4882930;29;20490;-66
2021/08/29 10:25:43;;;;;;;7.53;6.10;;;;;;;27.24;100.00;100334.63;4883733;29;20092;-67
2021/08/29 10:28:58;;;;;;;6.25;5.65;;;;;;;28.06;100.00;100334.94;4882573;29;20029;-67
2021/08/29 10:31:52;;;;;;;5.95;5.45;;;;;;;27.47;100.00;100327.09;4873958;29;20028;-66
2021/08/29 10:34:37;;;;;;;6.15;5.55;;;;;;;27.90;100.00;100329.31;4883914;29;20029;-66
2021/08/29 10:37:24;;;;;;;7.50;5.90;;;;;;;27.94;100.00;100323.50;4868924;29;20120;-67
2021/08/29 10:40:12;;;;;;;6.80;6.10;;;;;;;27.39;100.00;100326.97;4883130;29;20028;-66
2021/08/29 10:43:02;;;;;;;8.77;6.53;;;;;;;28.13;100.00;100342.31;4882917;29;20036;-65
2021/08/29 10:45:47;;;;;;;6.75;6.10;;;;;;;27.89;100.00;100333.00;4881816;29;20033;-66
2021/08/29 10:48:39;;;;;;;7.55;6.70;;;;;;;27.03;100.00;100338.38;4882432;29;20029;-67
2021/08/29 10:51:27;;;;;;;7.03;6.40;;;;;;;27.41;100.00;100331.22;4883543;29;20502;-66
2021/08/29 10:54:14;;;;;;;7.13;6.43;;;;;;;27.51;100.00;100328.50;4882102;29;20159;-66
2021/08/29 10:57:26;;;;;;;6.00;5.40;;;;;;;28.18;100.00;100333.75;4881554;29;20477;-66
2021/08/29 11:00:31;;;;;;;6.20;5.60;;;;;;;28.15;100.00;100337.59;4869197;29;20033;-67
2021/08/29 11:03:35;;;;;;;6.47;5.88;;;;;;;27.81;100.00;100333.72;4869778;29;20029;-66
2021/08/29 11:06:46;;;;;;;7.60;5.82;;;;;;;28.10;100.00;100341.72;4883459;29;20056;-66
2021/08/29 11:12:19;;;;;;;7.35;6.60;;;;;;;27.96;100.00;100344.91;4882279;29;20056;-66
2021/08/29 11:15:13;;;;;;;6.85;6.15;;;;;;;27.95;100.00;100340.50;4881306;29;20040;-67
2021/08/29 11:18:02;;;;;;;8.18;7.30;;;;;;;27.97;100.00;100341.22;4869552;29;20043;-66
2021/08/29 11:20:57;;;;;;;7.80;7.00;;;;;;;28.23;100.00;100336.84;4881386;29;20033;-66
2021/08/29 11:23:43;;;;;;;8.95;7.15;;;;;;;28.78;100.00;100344.84;4881179;29;20091;-66
2021/08/29 11:26:31;;;;;;;7.40;6.70;;;;;;;28.53;100.00;100339.31;4881208;29;20443;-66
2021/08/29 11:29:39;;;;;;;7.78;7.07;;;;;;;28.62;100.00;100331.19;4869164;29;20442;-67
2021/08/29 11:32:45;;;;;;;8.80;8.00;;;;;;;28.17;100.00;100326.69;4881942;29;20021;-66
2021/08/29 11:35:34;;;;;;;8.70;7.90;;;;;;;28.18;100.00;100333.75;4883015;29;20458;-67
2021/08/29 11:38:34;;;;;;;8.13;7.32;;;;;;;28.12;100.00;100328.97;4880907;29;20064;-66
2021/08/29 11:41:20;;;;;;;8.88;8.00;;;;;;;28.49;100.00;100329.84;4868658;29;20447;-66
2021/08/29 11:44:18;;;;;;;8.77;7.97;;;;;;;28.11;100.00;100319.19;4880950;29;20497;-66
2021/08/29 11:47:05;;;;;;;8.38;7.57;;;;;;;28.06;100.00;100326.84;4874835;29;20057;-66
2021/08/29 11:49:56;;;;;;;8.43;7.63;;;;;;;28.42;100.00;100326.03;4881844;29;20060;-67
2021/08/29 11:52:43;;;;;;;7.85;7.15;;;;;;;28.79;100.00;100330.38;4881945;29;20044;-67
2021/08/29 11:55:29;;;;;;;8.98;8.10;;;;;;;28.61;100.00;100326.75;4881556;29;20044;-66
2021/08/29 11:58:20;;;;;;;7.63;6.93;;;;;;;29.42;100.00;100325.78;4881355;29;20060;-66
2021/08/29 12:01:06;;;;;;;8.70;7.90;;;;;;;29.55;100.00;100323.53;4882506;29;20401;-66
2021/08/29 12:03:56;;;;;;;8.13;7.32;;;;;;;29.79;100.00;100324.59;4881049;29;20039;-66
2021/08/29 12:06:53;;;;;;;8.70;7.90;;;;;;;29.27;100.00;100320.09;4882368;29;20029;-67
2021/08/29 12:09:41;;;;;;;8.95;7.07;;;;;;;29.09;100.00;100321.09;4880936;29;20037;-66
2021/08/29 12:12:27;;;;;;;8.30;7.60;;;;;;;28.79;100.00;100319.56;4881500;29;20032;-66
2021/08/29 12:15:14;;;;;;;7.93;7.15;;;;;;;28.62;100.00;100319.53;4880976;29;20111;-66
2021/08/29 12:18:02;;;;;;;7.68;6.88;;;;;;;28.48;100.00;100315.50;4882026;29;20037;-66
2021/08/29 12:20:50;;;;;;;7.30;6.60;;;;;;;28.52;100.00;100310.66;4881167;29;20057;-67
2021/08/29 12:23:38;;;;;;;8.43;6.53;;;;;;;28.03;100.00;100303.75;4882318;29;20029;-66
2021/08/29 12:26:27;;;;;;;7.22;6.53;;;;;;;28.20;100.00;100313.75;4882031;29;20025;-66
2021/08/29 12:29:13;;;;;;;7.13;6.43;;;;;;;28.84;100.00;100309.16;4880854;29;20040;-66
2021/08/29 12:32:07;;;;;;;7.38;6.68;;;;;;;28.47;100.00;100312.94;4880960;29;20100;-67
2021/08/29 12:34:57;;;;;;;7.60;6.90;;;;;;;28.24;100.00;100314.31;4881161;29;20370;-67
2021/08/29 12:37:44;;;;;;;8.32;6.82;;;;;;;28.34;100.00;100310.59;4880696;29;20032;-66
2021/08/29 12:40:32;;;;;;;9.52;7.40;;;;;;;28.23;100.00;100315.28;4880889;29;20104;-66